createdAt,value
2023-03-13T00:00:58.497Z,147233.00
2023-03-13T00:02:01.374Z,147212.47
2023-03-13T00:03:03.922Z,147222.13
2023-03-13T00:04:06.782Z,147216.09
2023-03-13T00:05:09.446Z,147216.09
2023-03-13T00:06:12.416Z,147235.41
2023-03-13T00:07:14.942Z,147222.13
2023-03-13T00:08:17.459Z,147212.47
2023-03-13T00:09:19.980Z,147220.94
2023-03-13T00:10:22.388Z,147223.34
2023-03-13T00:11:25.020Z,147218.50
2023-03-13T00:12:27.428Z,147216.09
2023-03-13T00:13:29.942Z,147225.75
2023-03-13T00:14:32.342Z,147233.00
2023-03-13T00:15:35.350Z,147201.56
2023-03-13T00:16:39.697Z,147229.38
2023-03-13T00:17:42.314Z,147224.56
2023-03-13T00:18:47.354Z,147241.50
2023-03-13T00:19:50.825Z,147228.16
2023-03-13T00:21:07.143Z,147262.03
2023-03-13T00:22:09.791Z,147240.25
2023-03-13T00:23:12.314Z,147235.41
2023-03-13T00:24:15.070Z,147225.75
2023-03-13T00:25:17.709Z,147230.59
2023-03-13T00:26:22.387Z,147243.91
2023-03-13T00:27:25.153Z,147228.16
2023-03-13T00:28:32.323Z,147229.38
2023-03-13T00:29:35.350Z,147228.16
2023-03-13T00:30:37.852Z,147214.88
2023-03-13T00:31:40.535Z,147218.50
2023-03-13T00:32:46.212Z,147213.69
2023-03-13T00:33:51.937Z,147225.75
2023-03-13T00:34:54.433Z,147225.75
2023-03-13T00:36:05.845Z,147254.78
2023-03-13T00:37:08.355Z,147233.00
2023-03-13T00:38:10.876Z,147260.81
2023-03-13T00:39:13.425Z,147254.78
2023-03-13T00:40:16.040Z,147235.41
2023-03-13T00:41:20.969Z,147245.13
2023-03-13T00:42:23.358Z,147229.38
2023-03-13T00:43:25.757Z,147220.94
2023-03-13T00:44:28.158Z,147246.31
2023-03-13T00:45:30.699Z,147243.91
2023-03-13T00:46:33.261Z,147230.59
2023-03-13T00:47:35.843Z,147220.94
2023-03-13T00:48:38.729Z,147219.72
2023-03-13T00:49:41.121Z,147211.28
2023-03-13T00:50:43.660Z,147214.88
2023-03-13T00:51:46.053Z,147203.97
2023-03-13T00:52:48.566Z,147206.41
2023-03-13T00:53:51.202Z,147208.84
2023-03-13T00:54:53.726Z,147201.56
2023-03-13T00:56:07.777Z,147220.94
2023-03-13T00:57:10.285Z,147197.94
2023-03-13T00:58:12.688Z,147208.84
2023-03-13T00:59:15.509Z,147185.88
2023-03-13T01:00:18.330Z,147194.31
2023-03-13T01:01:32.760Z,147199.16
2023-03-13T01:02:42.068Z,147211.28
2023-03-13T01:03:49.533Z,147211.28
2023-03-13T01:04:54.098Z,147187.09
2023-03-13T01:06:00.705Z,147187.09
2023-03-13T01:07:03.457Z,147173.75
2023-03-13T01:08:06.102Z,147158.06
2023-03-13T01:09:11.024Z,147156.88
2023-03-13T01:10:13.660Z,147162.91
2023-03-13T01:11:21.584Z,147170.13
2023-03-13T01:12:24.107Z,147160.47
2023-03-13T01:13:27.463Z,147152.03
2023-03-13T01:14:30.110Z,147125.44
2023-03-13T01:15:35.529Z,147136.31
2023-03-13T01:16:39.015Z,147125.44
2023-03-13T01:17:44.278Z,147143.59
2023-03-13T01:18:51.110Z,147136.31
2023-03-13T01:19:56.872Z,147147.22
2023-03-13T01:20:59.391Z,147117.00
2023-03-13T01:22:01.919Z,147109.69
2023-03-13T01:23:04.441Z,147110.97
2023-03-13T01:24:07.195Z,147119.41
2023-03-13T01:25:09.841Z,147124.22
2023-03-13T01:26:12.489Z,147126.66
2023-03-13T01:27:14.995Z,147114.56
2023-03-13T01:28:18.258Z,147117.00
2023-03-13T01:29:20.640Z,147097.59
2023-03-13T01:30:23.778Z,147117.00
2023-03-13T01:31:29.280Z,147123.03
2023-03-13T01:32:33.886Z,147125.44
2023-03-13T01:33:38.168Z,147119.41
2023-03-13T01:34:40.810Z,147114.56
2023-03-13T01:35:43.821Z,147104.84
2023-03-13T01:36:50.552Z,147097.59
2023-03-13T01:37:52.928Z,147096.38
2023-03-13T01:38:57.371Z,147100.00
2023-03-13T01:40:00.134Z,147072.19
2023-03-13T01:41:03.614Z,147072.19
2023-03-13T01:42:06.738Z,147066.16
2023-03-13T01:43:27.572Z,147114.56
2023-03-13T01:44:49.934Z,147131.47
2023-03-13T01:45:55.154Z,147126.66
2023-03-13T01:46:59.414Z,147100.00
2023-03-13T01:48:02.059Z,147101.22
2023-03-13T01:49:29.530Z,147115.78
2023-03-13T01:50:38.893Z,147072.19
2023-03-13T01:51:59.655Z,147107.28
2023-03-13T01:53:02.296Z,147071.00
2023-03-13T01:54:15.739Z,147115.78
2023-03-13T01:55:18.630Z,147084.31
2023-03-13T01:56:50.064Z,147136.31
2023-03-13T01:57:54.752Z,147121.81
2023-03-13T01:59:00.140Z,147126.66
2023-03-13T02:00:14.189Z,147152.03
2023-03-13T02:01:19.033Z,147135.09
2023-03-13T02:02:22.869Z,147130.25
2023-03-13T02:03:27.505Z,147127.84
2023-03-13T02:04:35.185Z,147126.66
2023-03-13T02:05:39.022Z,147109.69
2023-03-13T02:06:46.347Z,147086.72
2023-03-13T02:07:53.909Z,147097.59
2023-03-13T02:09:01.837Z,147093.97
2023-03-13T02:10:05.067Z,147083.09
2023-03-13T02:11:42.266Z,147136.31
2023-03-13T02:12:45.748Z,147097.59
2023-03-13T02:13:50.190Z,147103.63
2023-03-13T02:14:54.158Z,147102.41
2023-03-13T02:15:57.336Z,147095.19
2023-03-13T02:17:01.356Z,147102.41
2023-03-13T02:18:04.039Z,147114.56
2023-03-13T02:19:18.392Z,147126.66
2023-03-13T02:20:22.485Z,147107.28
2023-03-13T02:21:35.312Z,147131.47
2023-03-13T02:22:45.152Z,147153.25
2023-03-13T02:23:57.396Z,147131.47
2023-03-13T02:25:25.959Z,147133.88
2023-03-13T02:26:32.312Z,147101.22
2023-03-13T02:27:34.955Z,147108.50
2023-03-13T02:28:39.641Z,147126.66
2023-03-13T02:29:47.199Z,147152.03
2023-03-13T02:30:54.039Z,147160.47
2023-03-13T02:31:56.689Z,147115.78
2023-03-13T02:33:00.717Z,147136.31
2023-03-13T02:34:04.722Z,147133.88
2023-03-13T02:35:14.568Z,147165.31
2023-03-13T02:36:18.764Z,147133.88
2023-03-13T02:37:22.238Z,147131.47
2023-03-13T02:38:27.525Z,147141.13
2023-03-13T02:39:32.205Z,147135.09
2023-03-13T02:40:39.044Z,147147.22
2023-03-13T02:41:45.185Z,147138.72
2023-03-13T02:42:49.244Z,147139.91
2023-03-13T02:43:51.770Z,147129.06
2023-03-13T02:44:54.898Z,147162.91
2023-03-13T02:46:05.806Z,147176.22
2023-03-13T02:47:10.617Z,147156.88
2023-03-13T02:48:13.250Z,147152.03
2023-03-13T02:49:23.335Z,147183.47
2023-03-13T02:50:26.221Z,147146.00
2023-03-13T02:51:46.151Z,147187.09
2023-03-13T02:52:56.347Z,147183.47
2023-03-13T02:54:03.181Z,147158.06
2023-03-13T02:55:10.975Z,147177.44
2023-03-13T02:56:16.991Z,147176.22
2023-03-13T02:57:19.620Z,147149.63
2023-03-13T02:58:24.913Z,147155.66
2023-03-13T02:59:27.541Z,147159.28
2023-03-13T03:00:30.105Z,147159.28
2023-03-13T03:01:33.079Z,147141.13
2023-03-13T03:02:35.591Z,147143.59
2023-03-13T03:03:39.469Z,147121.81
2023-03-13T03:04:41.948Z,147129.06
2023-03-13T03:05:46.628Z,147139.91
2023-03-13T03:06:50.230Z,147142.34
2023-03-13T03:07:53.470Z,147141.13
2023-03-13T03:08:55.872Z,147171.34
2023-03-13T03:09:58.991Z,147146.00
2023-03-13T03:11:01.991Z,147150.81
2023-03-13T03:12:04.753Z,147141.13
2023-03-13T03:13:08.112Z,147129.06
2023-03-13T03:14:11.843Z,147146.00
2023-03-13T03:15:18.579Z,147155.66
2023-03-13T03:16:23.416Z,147146.00
2023-03-13T03:17:26.117Z,147155.66
2023-03-13T03:18:29.356Z,147138.72
2023-03-13T03:19:31.997Z,147131.47
2023-03-13T03:20:35.851Z,147133.88
2023-03-13T03:21:38.961Z,147146.00
2023-03-13T03:22:41.618Z,147133.88
2023-03-13T03:23:44.126Z,147158.06
2023-03-13T03:24:46.875Z,147160.47
2023-03-13T03:25:49.396Z,147155.66
2023-03-13T03:26:52.040Z,147162.91
2023-03-13T03:28:01.044Z,147160.47
2023-03-13T03:29:04.183Z,147139.91
2023-03-13T03:30:07.400Z,147141.13
2023-03-13T03:31:14.394Z,147162.91
2023-03-13T03:32:17.012Z,147160.47
2023-03-13T03:33:19.635Z,147172.56
2023-03-13T03:34:22.523Z,147177.44
2023-03-13T03:35:25.526Z,147196.75
2023-03-13T03:36:29.001Z,147179.84
2023-03-13T03:37:31.408Z,147199.16
2023-03-13T03:38:36.559Z,147187.09
2023-03-13T03:39:39.454Z,147205.19
2023-03-13T03:40:42.573Z,147203.97
2023-03-13T03:41:45.203Z,147188.28
2023-03-13T03:42:48.084Z,147190.72
2023-03-13T03:43:50.609Z,147196.75
2023-03-13T03:44:56.975Z,147174.97
2023-03-13T03:45:59.527Z,147181.03
2023-03-13T03:47:02.697Z,147194.31
2023-03-13T03:48:09.684Z,147184.66
2023-03-13T03:49:12.216Z,147176.22
2023-03-13T03:50:14.849Z,147196.75
2023-03-13T03:51:27.719Z,147178.63
2023-03-13T03:52:30.207Z,147196.75
2023-03-13T03:53:32.973Z,147176.22
2023-03-13T03:54:35.530Z,147170.13
2023-03-13T03:55:38.974Z,147184.66
2023-03-13T03:56:41.614Z,147179.84
2023-03-13T03:57:44.141Z,147189.50
2023-03-13T03:58:51.457Z,147184.66
2023-03-13T04:00:16.136Z,147179.84
2023-03-13T04:01:24.583Z,147179.84
2023-03-13T04:02:27.617Z,147196.75
2023-03-13T04:03:30.325Z,147199.16
2023-03-13T04:04:33.100Z,147203.97
2023-03-13T04:05:47.981Z,147194.31
2023-03-13T04:06:51.104Z,147199.16
2023-03-13T04:07:53.686Z,147191.91
2023-03-13T04:08:56.266Z,147194.31
2023-03-13T04:10:00.829Z,147217.31
2023-03-13T04:11:10.792Z,147206.41
2023-03-13T04:12:16.789Z,147208.84
2023-03-13T04:13:21.468Z,147194.31
2023-03-13T04:14:24.473Z,147214.88
2023-03-13T04:15:27.354Z,147218.50
2023-03-13T04:16:30.037Z,147220.94
2023-03-13T04:17:32.631Z,147225.75
2023-03-13T04:18:35.632Z,147225.75
2023-03-13T04:19:38.632Z,147220.94
2023-03-13T04:20:41.153Z,147226.97
2023-03-13T04:21:43.914Z,147237.84
2023-03-13T04:22:50.396Z,147252.38
2023-03-13T04:23:53.156Z,147236.63
2023-03-13T04:24:56.521Z,147245.13
2023-03-13T04:25:59.281Z,147245.13
2023-03-13T04:27:03.723Z,147245.13
2023-03-13T04:28:06.599Z,147228.16
2023-03-13T04:29:14.878Z,147233.00
2023-03-13T04:30:37.619Z,147240.25
2023-03-13T04:31:52.112Z,147245.13
2023-03-13T04:33:06.363Z,147246.31
2023-03-13T04:34:26.050Z,147246.31
2023-03-13T04:36:04.624Z,147272.88
2023-03-13T04:37:21.725Z,147268.06
2023-03-13T04:38:42.726Z,147286.22
2023-03-13T04:39:58.699Z,147277.75
2023-03-13T04:41:25.089Z,147266.84
2023-03-13T04:42:50.648Z,147263.22
2023-03-13T04:44:13.090Z,147281.38
2023-03-13T04:45:35.781Z,147271.69
2023-03-13T04:46:56.894Z,147281.38
2023-03-13T04:48:09.612Z,147278.97
2023-03-13T04:49:29.785Z,147378.13
2023-03-13T04:50:32.293Z,147412.00
2023-03-13T04:51:57.733Z,147407.16
2023-03-13T04:53:20.537Z,147424.06
2023-03-13T04:55:01.111Z,147412.00
2023-03-13T04:56:42.255Z,147431.31
2023-03-13T04:58:00.879Z,147424.06
2023-03-13T04:59:39.260Z,147447.06
2023-03-13T05:01:13.890Z,147448.28
2023-03-13T05:02:44.903Z,147444.66
2023-03-13T05:04:02.194Z,147437.41
2023-03-13T05:05:23.374Z,147460.34
2023-03-13T05:06:28.585Z,147465.19
2023-03-13T05:07:49.343Z,147520.84
2023-03-13T05:09:14.668Z,147490.59
2023-03-13T05:10:36.030Z,147479.72
2023-03-13T05:11:40.369Z,147486.97
2023-03-13T05:12:53.907Z,147470.06
2023-03-13T05:14:22.592Z,147474.91
2023-03-13T05:15:43.487Z,147472.47
2023-03-13T05:17:04.238Z,147489.41
2023-03-13T05:18:25.250Z,147537.81
2023-03-13T05:19:41.102Z,147378.13
2023-03-13T05:21:10.475Z,147496.63
2023-03-13T05:22:45.158Z,147482.16
2023-03-13T05:23:47.563Z,147495.44
2023-03-13T05:25:14.092Z,147516.03
2023-03-13T05:26:35.336Z,147509.97
2023-03-13T05:27:56.448Z,147511.19
2023-03-13T05:29:19.362Z,147529.31
2023-03-13T05:30:35.685Z,147541.44
2023-03-13T05:31:58.364Z,147503.94
2023-03-13T05:33:32.929Z,147539.03
2023-03-13T05:34:49.506Z,147537.81
2023-03-13T05:36:10.362Z,147593.50
2023-03-13T05:37:18.768Z,147555.97
2023-03-13T05:38:41.807Z,147570.53
2023-03-13T05:39:57.528Z,147559.63
2023-03-13T05:41:13.726Z,147564.44
2023-03-13T05:42:49.376Z,147572.94
2023-03-13T05:44:04.130Z,147588.66
2023-03-13T05:45:26.809Z,147572.94
2023-03-13T05:46:48.237Z,147579.00
2023-03-13T05:48:02.586Z,147600.78
2023-03-13T05:49:04.988Z,147583.81
2023-03-13T05:50:33.658Z,147608.03
2023-03-13T05:52:02.094Z,147593.50
2023-03-13T05:53:23.584Z,147605.63
2023-03-13T05:54:46.376Z,147609.25
2023-03-13T05:56:27.418Z,147612.88
2023-03-13T05:57:43.973Z,147605.63
2023-03-13T05:59:03.067Z,147620.13
2023-03-13T06:00:44.463Z,147638.31
2023-03-13T06:02:16.141Z,147643.13
2023-03-13T06:03:21.334Z,147664.94
2023-03-13T06:04:26.620Z,147641.94
2023-03-13T06:05:29.581Z,147655.22
2023-03-13T06:06:32.458Z,147668.56
2023-03-13T06:07:36.058Z,147663.69
2023-03-13T06:08:38.950Z,147677.03
2023-03-13T06:09:41.460Z,147683.06
2023-03-13T06:10:44.700Z,147658.84
2023-03-13T06:11:47.364Z,147668.56
2023-03-13T06:12:54.547Z,147716.97
2023-03-13T06:13:58.502Z,147713.34
2023-03-13T06:15:12.110Z,147714.53
2023-03-13T06:16:33.233Z,147707.28
2023-03-13T06:17:53.704Z,147716.97
2023-03-13T06:18:56.308Z,147723.00
2023-03-13T06:19:58.872Z,147716.97
2023-03-13T06:21:03.539Z,147712.13
2023-03-13T06:22:06.450Z,147714.53
2023-03-13T06:23:08.947Z,147724.22
2023-03-13T06:24:11.351Z,147719.38
2023-03-13T06:25:13.989Z,147737.56
2023-03-13T06:26:16.508Z,147752.06
2023-03-13T06:27:19.030Z,147732.72
2023-03-13T06:28:21.675Z,147749.66
2023-03-13T06:29:24.550Z,147761.75
2023-03-13T06:30:27.075Z,147758.13
2023-03-13T06:31:29.659Z,147782.34
2023-03-13T06:32:32.332Z,147772.66
2023-03-13T06:33:35.118Z,147773.88
2023-03-13T06:34:37.884Z,147787.19
2023-03-13T06:35:55.353Z,147794.44
2023-03-13T06:37:00.568Z,147778.72
2023-03-13T06:38:03.320Z,147779.94
2023-03-13T06:39:05.973Z,147788.38
2023-03-13T06:40:09.215Z,147806.56
2023-03-13T06:41:11.727Z,147823.50
2023-03-13T06:42:14.133Z,147766.63
2023-03-13T06:43:16.769Z,147850.16
2023-03-13T06:44:19.171Z,147870.75
2023-03-13T06:45:21.723Z,147868.34
2023-03-13T06:46:24.902Z,147882.84
2023-03-13T06:47:27.446Z,147881.66
2023-03-13T06:48:29.844Z,147876.81
2023-03-13T06:49:32.256Z,147884.06
2023-03-13T06:50:38.974Z,147927.75
2023-03-13T06:51:41.486Z,147903.47
2023-03-13T06:52:44.477Z,147913.13
2023-03-13T06:53:47.620Z,147915.56
2023-03-13T06:54:50.146Z,147903.47
2023-03-13T06:55:52.772Z,147930.16
2023-03-13T06:56:55.309Z,147908.31
2023-03-13T06:57:57.831Z,147930.16
2023-03-13T06:59:00.376Z,147920.41
2023-03-13T07:00:02.850Z,147937.44
2023-03-13T07:01:13.664Z,147983.44
2023-03-13T07:02:15.951Z,147981.03
2023-03-13T07:03:18.348Z,147932.59
2023-03-13T07:04:20.910Z,147951.94
2023-03-13T07:05:23.261Z,147955.56
2023-03-13T07:06:27.028Z,147954.34
2023-03-13T07:07:32.096Z,147954.34
2023-03-13T07:08:35.864Z,147961.66
2023-03-13T07:09:38.382Z,147959.25
2023-03-13T07:10:43.275Z,147974.97
2023-03-13T07:11:46.188Z,147962.88
2023-03-13T07:12:48.708Z,147959.25
2023-03-13T07:13:51.229Z,147974.97
2023-03-13T07:14:53.748Z,147981.03
2023-03-13T07:15:56.521Z,147956.78
2023-03-13T07:17:00.204Z,147978.59
2023-03-13T07:18:02.873Z,147990.69
2023-03-13T07:19:05.390Z,147988.28
2023-03-13T07:20:10.749Z,148000.41
2023-03-13T07:21:14.280Z,147994.38
2023-03-13T07:22:16.807Z,148000.41
2023-03-13T07:23:19.348Z,148001.63
2023-03-13T07:24:21.985Z,147998.00
2023-03-13T07:25:24.594Z,148007.69
2023-03-13T07:26:27.178Z,148011.31
2023-03-13T07:27:29.523Z,148021.00
2023-03-13T07:28:33.446Z,148033.13
2023-03-13T07:29:36.851Z,148013.72
2023-03-13T07:30:39.360Z,148017.38
2023-03-13T07:31:42.029Z,148010.09
2023-03-13T07:32:44.727Z,148017.38
2023-03-13T07:33:48.031Z,148029.50
2023-03-13T07:34:50.528Z,148019.78
2023-03-13T07:35:53.413Z,147951.94
2023-03-13T07:36:55.926Z,147939.84
2023-03-13T07:37:58.447Z,147922.81
2023-03-13T07:39:00.966Z,147935.00
2023-03-13T07:40:04.886Z,147932.59
2023-03-13T07:41:07.577Z,147930.16
2023-03-13T07:42:13.328Z,147970.13
2023-03-13T07:43:16.931Z,147937.44
2023-03-13T07:44:19.452Z,147935.00
2023-03-13T07:45:21.974Z,147943.47
2023-03-13T07:46:24.660Z,147948.31
2023-03-13T07:47:27.369Z,147961.66
2023-03-13T07:48:36.853Z,147984.66
2023-03-13T07:49:41.301Z,147960.44
2023-03-13T07:50:43.860Z,147961.66
2023-03-13T07:51:48.254Z,147960.44
2023-03-13T07:52:50.899Z,147965.28
2023-03-13T07:53:53.777Z,147972.56
2023-03-13T07:54:56.322Z,147968.94
2023-03-13T07:56:10.728Z,148006.47
2023-03-13T07:57:13.607Z,147988.28
2023-03-13T07:58:16.221Z,147981.03
2023-03-13T07:59:18.975Z,147987.06
2023-03-13T08:00:22.220Z,147983.44
2023-03-13T08:01:30.311Z,148013.72
2023-03-13T08:02:34.199Z,148002.84
2023-03-13T08:03:37.512Z,148002.84
2023-03-13T08:04:40.704Z,148019.78
2023-03-13T08:05:43.464Z,148008.91
2023-03-13T08:06:45.984Z,148000.41
2023-03-13T08:07:48.384Z,147994.38
2023-03-13T08:08:51.869Z,147990.69
2023-03-13T08:09:54.385Z,147983.44
2023-03-13T08:11:01.704Z,148028.31
2023-03-13T08:12:05.133Z,148029.50
2023-03-13T08:13:09.018Z,148017.38
2023-03-13T08:14:11.551Z,148017.38
2023-03-13T08:15:14.075Z,148000.41
2023-03-13T08:16:22.261Z,148010.09
2023-03-13T08:17:24.869Z,147988.28
2023-03-13T08:18:27.410Z,147981.03
2023-03-13T08:19:30.045Z,147999.22
2023-03-13T08:20:32.553Z,147983.44
2023-03-13T08:21:37.241Z,148004.06
2023-03-13T08:22:39.751Z,147990.69
2023-03-13T08:23:42.869Z,147985.84
2023-03-13T08:24:45.395Z,147998.00
2023-03-13T08:25:47.796Z,148002.84
2023-03-13T08:26:50.313Z,147993.16
2023-03-13T08:27:52.834Z,148006.47
2023-03-13T08:28:57.776Z,148029.50
2023-03-13T08:30:00.282Z,148010.09
2023-03-13T08:31:11.758Z,148029.50
2023-03-13T08:32:14.194Z,148001.63
2023-03-13T08:33:16.713Z,148001.63
2023-03-13T08:34:19.480Z,148010.09
2023-03-13T08:35:22.009Z,148005.25
2023-03-13T08:36:26.917Z,148024.66
2023-03-13T08:37:29.441Z,148005.25
2023-03-13T08:38:31.967Z,148007.69
2023-03-13T08:39:34.478Z,148007.69
2023-03-13T08:40:37.006Z,148024.66
2023-03-13T08:41:40.875Z,148030.72
2023-03-13T08:42:43.362Z,148023.41
2023-03-13T08:43:46.988Z,148030.72
2023-03-13T08:44:49.602Z,148027.09
2023-03-13T08:45:58.263Z,148065.84
2023-03-13T08:47:00.894Z,148036.78
2023-03-13T08:48:03.404Z,148046.44
2023-03-13T08:49:08.093Z,148048.88
2023-03-13T08:50:10.989Z,148051.28
2023-03-13T08:51:15.774Z,148077.97
2023-03-13T08:52:18.295Z,148064.66
2023-03-13T08:53:20.690Z,148065.84
2023-03-13T08:54:23.335Z,148077.97
2023-03-13T08:55:26.641Z,148088.84
2023-03-13T08:56:32.823Z,148104.63
2023-03-13T08:57:35.342Z,148091.31
2023-03-13T08:58:38.218Z,148099.78
2023-03-13T08:59:40.976Z,148111.88
2023-03-13T09:00:43.625Z,148099.78
2023-03-13T09:01:46.141Z,148088.84
2023-03-13T09:02:48.823Z,148096.16
2023-03-13T09:03:52.744Z,148103.41
2023-03-13T09:04:55.278Z,148097.38
2023-03-13T09:05:58.985Z,148115.53
2023-03-13T09:07:01.627Z,148102.22
2023-03-13T09:08:04.505Z,148102.22
2023-03-13T09:09:08.347Z,148127.66
2023-03-13T09:10:11.128Z,148092.53
2023-03-13T09:11:19.758Z,148107.06
2023-03-13T09:12:30.806Z,148088.84
2023-03-13T09:13:36.309Z,148097.38
2023-03-13T09:14:38.832Z,148073.13
2023-03-13T09:15:41.394Z,148081.59
2023-03-13T09:16:46.395Z,148074.31
2023-03-13T09:17:48.941Z,148070.69
2023-03-13T09:18:52.444Z,148068.28
2023-03-13T09:20:00.457Z,148057.38
2023-03-13T09:21:05.842Z,148077.97
2023-03-13T09:22:09.689Z,148051.28
2023-03-13T09:23:12.080Z,148061.00
2023-03-13T09:24:14.591Z,148065.84
2023-03-13T09:25:17.369Z,148090.09
2023-03-13T09:26:22.973Z,148122.81
2023-03-13T09:27:25.877Z,148125.25
2023-03-13T09:28:29.243Z,148124.03
2023-03-13T09:29:33.346Z,148139.78
2023-03-13T09:30:35.897Z,148189.50
2023-03-13T09:31:38.637Z,148262.28
2023-03-13T09:32:41.028Z,148288.94
2023-03-13T09:33:45.083Z,148298.63
2023-03-13T09:34:47.718Z,148301.06
2023-03-13T09:35:53.065Z,148291.38
2023-03-13T09:36:55.526Z,148279.22
2023-03-13T09:37:58.040Z,148270.75
2023-03-13T09:39:00.683Z,148288.94
2023-03-13T09:40:04.412Z,148287.75
2023-03-13T09:41:45.567Z,148358.06
2023-03-13T09:42:51.449Z,148336.22
2023-03-13T09:44:13.922Z,148322.91
2023-03-13T09:45:24.891Z,148335.00
2023-03-13T09:46:57.469Z,148344.69
2023-03-13T09:48:14.017Z,148384.75
2023-03-13T09:49:31.424Z,148413.84
2023-03-13T09:50:43.893Z,148426.00
2023-03-13T09:51:53.015Z,148436.91
2023-03-13T09:53:00.815Z,148429.63
2023-03-13T09:54:15.090Z,148430.84
2023-03-13T09:55:24.702Z,148449.06
2023-03-13T09:56:34.294Z,148455.09
2023-03-13T09:57:45.694Z,148432.03
2023-03-13T09:58:55.061Z,148470.84
2023-03-13T10:00:16.530Z,148480.56
2023-03-13T10:01:24.235Z,148490.28
2023-03-13T10:02:36.824Z,148473.28
2023-03-13T10:03:44.856Z,148493.91
2023-03-13T10:05:10.176Z,148531.53
2023-03-13T10:06:19.548Z,148531.53
2023-03-13T10:07:22.187Z,148518.19
2023-03-13T10:08:31.057Z,148558.28
2023-03-13T10:09:34.329Z,148540.00
2023-03-13T10:10:43.063Z,148543.66
2023-03-13T10:11:56.261Z,148555.81
2023-03-13T10:13:10.421Z,148572.81
2023-03-13T10:14:43.821Z,148594.69
2023-03-13T10:15:50.355Z,148627.44
2023-03-13T10:16:56.752Z,148640.78
2023-03-13T10:18:06.115Z,148701.47
2023-03-13T10:19:23.503Z,148754.91
2023-03-13T10:20:28.200Z,148718.50
2023-03-13T10:21:36.342Z,148711.22
2023-03-13T10:22:40.307Z,148733.03
2023-03-13T10:24:05.384Z,148788.91
2023-03-13T10:25:29.034Z,148770.66
2023-03-13T10:26:37.082Z,148793.75
2023-03-13T10:27:51.171Z,148824.13
2023-03-13T10:28:54.605Z,148770.66
2023-03-13T10:29:57.116Z,148864.22
2023-03-13T10:31:10.142Z,148978.41
2023-03-13T10:32:15.596Z,148939.56
2023-03-13T10:33:20.291Z,148900.66
2023-03-13T10:34:22.921Z,148888.53
2023-03-13T10:35:33.887Z,148887.31
2023-03-13T10:36:40.436Z,148922.53
2023-03-13T10:37:43.916Z,148899.44
2023-03-13T10:38:54.763Z,148876.41
2023-03-13T10:40:15.264Z,148844.81
2023-03-13T10:41:31.942Z,148849.66
2023-03-13T10:42:37.441Z,148794.97
2023-03-13T10:43:51.239Z,148798.59
2023-03-13T10:45:00.373Z,148771.88
2023-03-13T10:46:04.087Z,148752.47
2023-03-13T10:47:06.817Z,148708.75
2023-03-13T10:48:27.136Z,148728.19
2023-03-13T10:49:31.328Z,148701.47
2023-03-13T10:50:35.526Z,148665.06
2023-03-13T10:51:52.333Z,148708.75
2023-03-13T10:52:55.218Z,148669.91
2023-03-13T10:53:57.735Z,148661.44
2023-03-13T10:55:02.894Z,148718.50
2023-03-13T10:56:14.422Z,148769.47
2023-03-13T10:57:19.709Z,148801.03
2023-03-13T10:58:36.849Z,148791.31
2023-03-13T10:59:45.982Z,148825.31
2023-03-13T11:00:49.812Z,148832.59
2023-03-13T11:01:54.013Z,148842.41
2023-03-13T11:02:56.733Z,148933.44
2023-03-13T11:04:02.499Z,149062.22
2023-03-13T11:05:31.454Z,149170.47
2023-03-13T11:06:35.172Z,149136.44
2023-03-13T11:07:40.484Z,149119.41
2023-03-13T11:08:43.030Z,149051.31
2023-03-13T11:09:58.456Z,149007.59
2023-03-13T11:11:03.500Z,148939.56
2023-03-13T11:12:14.206Z,148890.94
2023-03-13T11:13:36.086Z,148905.50
2023-03-13T11:14:39.868Z,148813.19
2023-03-13T11:15:57.549Z,148815.63
2023-03-13T11:17:21.623Z,148836.28
2023-03-13T11:18:44.567Z,148814.41
2023-03-13T11:20:06.386Z,148810.78
2023-03-13T11:21:20.441Z,148821.69
2023-03-13T11:22:38.196Z,148825.31
2023-03-13T11:23:45.753Z,148791.31
2023-03-13T11:24:54.024Z,148849.66
2023-03-13T11:26:04.946Z,148796.19
2023-03-13T11:27:15.806Z,148779.19
2023-03-13T11:28:30.050Z,148776.78
2023-03-13T11:29:38.282Z,148798.59
2023-03-13T11:30:57.871Z,148791.31
2023-03-13T11:32:07.744Z,148822.91
2023-03-13T11:33:29.679Z,148844.81
2023-03-13T11:34:54.279Z,148852.09
2023-03-13T11:35:56.874Z,148853.31
2023-03-13T11:37:03.899Z,148897.00
2023-03-13T11:38:20.100Z,148897.00
2023-03-13T11:39:51.277Z,148943.19
2023-03-13T11:41:13.751Z,148944.41
2023-03-13T11:42:34.956Z,149144.94
2023-03-13T11:43:42.200Z,149112.13
2023-03-13T11:44:47.806Z,149231.19
2023-03-13T11:46:16.635Z,149282.28
2023-03-13T11:47:37.602Z,149209.34
2023-03-13T11:48:45.827Z,149340.69
2023-03-13T11:50:00.109Z,149427.00
2023-03-13T11:51:14.320Z,149498.81
2023-03-13T11:52:34.245Z,149721.50
2023-03-13T11:54:05.099Z,149584.00
2023-03-13T11:55:29.864Z,149586.41
2023-03-13T11:56:47.450Z,149655.78
2023-03-13T11:57:58.906Z,149795.81
2023-03-13T11:59:07.247Z,149711.78
2023-03-13T12:00:31.531Z,149879.81
2023-03-13T12:01:49.419Z,149933.41
2023-03-13T12:02:58.610Z,150017.44
2023-03-13T12:04:22.623Z,149956.56
2023-03-13T12:05:29.066Z,149922.41
2023-03-13T12:06:36.299Z,149915.09
2023-03-13T12:07:44.731Z,149928.53
2023-03-13T12:08:53.218Z,149987.00
2023-03-13T12:10:10.142Z,150054.00
2023-03-13T12:11:22.500Z,150142.94
2023-03-13T12:12:30.658Z,150071.06
2023-03-13T12:13:42.539Z,150089.34
2023-03-13T12:14:51.299Z,149786.06
2023-03-13T12:15:59.700Z,149618.06
2023-03-13T12:17:11.705Z,149506.09
2023-03-13T12:18:14.102Z,149473.25
2023-03-13T12:19:24.068Z,149517.03
2023-03-13T12:20:34.659Z,149592.50
2023-03-13T12:21:45.459Z,149562.13
2023-03-13T12:23:22.269Z,149592.50
2023-03-13T12:24:44.465Z,149569.41
2023-03-13T12:26:02.623Z,149579.13
2023-03-13T12:27:20.227Z,149616.84
2023-03-13T12:28:32.186Z,149646.06
2023-03-13T12:29:51.913Z,149900.53
2023-03-13T12:31:16.062Z,150032.09
2023-03-13T12:32:29.880Z,150041.81
2023-03-13T12:33:43.393Z,149978.44
2023-03-13T12:34:54.325Z,149893.22
2023-03-13T12:36:22.788Z,149960.19
2023-03-13T12:37:43.638Z,149962.63
2023-03-13T12:39:06.201Z,149811.63
2023-03-13T12:40:16.079Z,149720.28
2023-03-13T12:41:21.203Z,149766.56
2023-03-13T12:42:41.120Z,149857.91
2023-03-13T12:43:51.849Z,149912.69
2023-03-13T12:45:04.893Z,149899.31
2023-03-13T12:46:32.419Z,149881.03
2023-03-13T12:47:39.929Z,149807.97
2023-03-13T12:49:02.855Z,149693.53
2023-03-13T12:50:23.733Z,149893.22
2023-03-13T12:51:42.691Z,150000.44
2023-03-13T12:53:09.690Z,149915.09
2023-03-13T12:54:27.458Z,149882.25
2023-03-13T12:55:46.072Z,149683.78
2023-03-13T12:57:03.461Z,149694.75
2023-03-13T12:58:15.214Z,149708.13
2023-03-13T12:59:22.070Z,149677.69
2023-03-13T13:00:28.776Z,149630.25